createdAt,value
2022-08-12T00:02:03.486Z,13.48
2022-08-12T00:04:52.933Z,16.65
2022-08-12T00:07:39.151Z,14.63
2022-08-12T00:10:25.684Z,14.52
2022-08-12T00:13:13.014Z,12.98
2022-08-12T00:16:02.639Z,12.80
2022-08-12T00:18:48.825Z,12.93
2022-08-12T00:21:37.912Z,13.05
2022-08-12T00:24:25.993Z,12.35
2022-08-12T00:27:12.599Z,13.30
2022-08-12T00:29:59.100Z,14.02
2022-08-12T00:32:54.359Z,13.10
2022-08-12T00:35:42.911Z,13.02
2022-08-12T00:38:30.567Z,14.07
2022-08-12T00:41:17.363Z,15.20
2022-08-12T00:43:46.149Z,15.27
2022-08-12T00:46:31.342Z,14.02
2022-08-12T00:48:59.952Z,15.30
2022-08-12T00:51:48.775Z,16.00
2022-08-12T00:54:17.286Z,13.77
2022-08-12T00:56:49.151Z,14.73
2022-08-12T00:59:17.471Z,14.52
2022-08-12T01:02:02.338Z,13.88
2022-08-12T01:04:54.121Z,15.15
2022-08-12T01:07:45.184Z,14.85
2022-08-12T01:10:33.043Z,13.95
2022-08-12T01:13:07.554Z,14.93
2022-08-12T01:15:54.457Z,15.45
2022-08-12T01:18:24.213Z,15.50
2022-08-12T01:21:26.969Z,14.60
2022-08-12T01:24:29.942Z,14.00
2022-08-12T01:26:59.435Z,14.13
2022-08-12T01:29:33.010Z,14.30
2022-08-12T01:32:05.521Z,14.73
2022-08-12T01:34:38.921Z,14.32
2022-08-12T01:37:09.467Z,13.38
2022-08-12T01:40:33.474Z,13.30
2022-08-12T01:42:51.102Z,13.13
2022-08-12T01:45:24.577Z,12.13
2022-08-12T01:48:05.339Z,12.35
2022-08-12T01:50:36.947Z,11.65
2022-08-12T01:53:12.394Z,12.65
2022-08-12T01:55:45.309Z,11.25
2022-08-12T01:58:57.374Z,11.77
2022-08-12T02:01:30.703Z,12.57
2022-08-12T02:04:31.576Z,14.40
2022-08-12T02:08:05.075Z,15.38
2022-08-12T02:11:08.404Z,14.27
2022-08-12T02:14:06.496Z,14.43
2022-08-12T02:16:45.435Z,14.77
2022-08-12T02:19:25.923Z,15.73
2022-08-12T02:22:20.579Z,17.83
2022-08-12T02:24:50.671Z,17.40
2022-08-12T02:27:19.733Z,25.52
2022-08-12T02:29:47.699Z,14.60
2022-08-12T02:32:15.232Z,14.95
2022-08-12T02:34:44.717Z,14.65
2022-08-12T02:39:49.591Z,14.95
2022-08-12T02:42:20.722Z,15.90
2022-08-12T02:44:53.271Z,15.38
2022-08-12T02:47:58.201Z,15.20
2022-08-12T02:50:17.906Z,15.57
2022-08-12T02:52:45.353Z,16.13
2022-08-12T02:55:28.253Z,16.55
2022-08-12T02:58:06.733Z,19.75
2022-08-12T03:00:38.065Z,20.08
2022-08-12T03:05:38.540Z,20.38
2022-08-12T03:08:31.585Z,18.58
2022-08-12T03:11:12.205Z,19.55
2022-08-12T03:13:46.467Z,21.17
2022-08-12T03:16:14.884Z,21.33
2022-08-12T03:18:46.234Z,23.20
2022-08-12T03:21:16.867Z,23.73
2022-08-12T03:23:46.495Z,23.30
2022-08-12T03:26:14.728Z,24.55
2022-08-12T03:28:51.937Z,29.33
2022-08-12T03:31:22.605Z,32.55
2022-08-12T03:34:01.314Z,29.48
2022-08-12T03:36:35.405Z,27.63
2022-08-12T03:39:18.715Z,22.08
2022-08-12T03:42:18.097Z,19.40
2022-08-12T03:45:20.173Z,17.08
2022-08-12T03:48:13.384Z,18.92
2022-08-12T03:51:06.719Z,21.20
2022-08-12T03:53:53.443Z,23.25
2022-08-12T03:56:39.235Z,19.80
2022-08-12T03:59:26.915Z,18.65
2022-08-12T04:01:58.157Z,20.92
2022-08-12T04:04:27.373Z,20.80
2022-08-12T04:06:54.378Z,22.05
2022-08-12T04:09:22.832Z,17.02
2022-08-12T04:12:09.141Z,15.57
2022-08-12T04:14:36.335Z,15.65
2022-08-12T04:17:04.219Z,17.48
2022-08-12T04:19:31.438Z,16.15
2022-08-12T04:22:03.025Z,17.13
2022-08-12T04:24:35.705Z,17.35
2022-08-12T04:27:05.777Z,17.20
2022-08-12T04:30:21.225Z,16.88
2022-08-12T04:32:21.427Z,15.35
2022-08-12T04:34:49.654Z,14.48
2022-08-12T04:37:16.750Z,14.32
2022-08-12T04:39:45.971Z,11.65
2022-08-12T04:42:13.753Z,10.60
2022-08-12T04:44:42.516Z,13.13
2022-08-12T04:47:15.240Z,10.85
2022-08-12T04:49:46.533Z,12.98
2022-08-12T04:52:14.746Z,10.02
2022-08-12T04:54:44.027Z,11.80
2022-08-12T04:59:46.947Z,10.25
2022-08-12T05:02:21.635Z,6.50
2022-08-12T05:05:00.489Z,6.68
2022-08-12T05:07:28.714Z,5.32
2022-08-12T05:10:02.048Z,4.95
2022-08-12T05:12:41.307Z,4.20
2022-08-12T05:15:19.770Z,4.45
2022-08-12T05:17:56.082Z,4.43
2022-08-12T05:20:26.177Z,4.30
2022-08-12T05:23:13.016Z,3.25
2022-08-12T05:25:43.455Z,3.53
2022-08-12T05:28:11.345Z,4.20
2022-08-12T05:30:38.259Z,3.88
2022-08-12T05:33:06.874Z,3.65
2022-08-12T05:35:42.907Z,3.55
2022-08-12T05:38:30.222Z,3.95
2022-08-12T05:40:57.173Z,3.70
2022-08-12T05:43:24.872Z,4.18
2022-08-12T05:45:51.915Z,4.13
2022-08-12T05:48:19.424Z,4.35
2022-08-12T05:50:47.782Z,6.13
2022-08-12T05:53:15.019Z,7.07
2022-08-12T05:55:41.960Z,6.68
2022-08-12T05:58:09.114Z,7.30
2022-08-12T06:00:37.272Z,7.10
2022-08-12T06:03:06.233Z,8.15
2022-08-12T06:05:43.071Z,7.35
2022-08-12T06:08:23.210Z,6.72
2022-08-12T06:10:50.769Z,7.88
2022-08-12T06:13:27.873Z,7.18
2022-08-12T06:16:07.541Z,7.05
2022-08-12T06:18:34.695Z,7.03
2022-08-12T06:21:02.390Z,6.88
2022-08-12T06:23:30.333Z,6.88
2022-08-12T06:25:58.500Z,7.07
2022-08-12T06:28:26.223Z,7.22
2022-08-12T06:31:22.073Z,6.18
2022-08-12T06:34:00.382Z,6.70
2022-08-12T06:36:33.543Z,6.68
2022-08-12T06:39:01.510Z,6.63
2022-08-12T06:42:05.118Z,6.43
2022-08-12T06:44:34.171Z,6.93
2022-08-12T06:47:01.107Z,6.50
2022-08-12T06:49:33.575Z,7.03
2022-08-12T06:52:00.638Z,7.50
2022-08-12T06:54:31.768Z,7.80
2022-08-12T06:57:04.816Z,8.25
2022-08-12T06:59:41.487Z,10.10
2022-08-12T07:02:08.744Z,9.80
2022-08-12T07:04:39.190Z,9.02
2022-08-12T07:07:09.484Z,9.88
2022-08-12T07:10:06.652Z,10.10
2022-08-12T07:12:27.918Z,11.00
2022-08-12T07:14:57.359Z,10.45
2022-08-12T07:17:24.608Z,10.65
2022-08-12T07:19:52.123Z,10.05
2022-08-12T07:22:19.295Z,11.05
2022-08-12T07:25:06.226Z,11.10
2022-08-12T07:27:40.975Z,12.07
2022-08-12T07:30:10.010Z,11.40
2022-08-12T07:32:37.202Z,11.23
2022-08-12T07:35:04.464Z,11.07
2022-08-12T07:37:31.581Z,10.45
2022-08-12T07:39:59.612Z,11.05
2022-08-12T07:42:27.235Z,11.88
2022-08-12T07:44:54.691Z,10.93
2022-08-12T07:47:21.739Z,11.40
2022-08-12T07:50:04.147Z,9.75
2022-08-12T07:52:34.933Z,9.35
2022-08-12T07:55:02.764Z,8.70
2022-08-12T07:57:32.623Z,8.75
2022-08-12T08:00:04.641Z,9.30
2022-08-12T08:02:37.799Z,8.43
2022-08-12T08:05:06.099Z,9.27
2022-08-12T08:07:33.141Z,10.80
2022-08-12T08:10:02.344Z,10.82
2022-08-12T08:12:48.784Z,13.02
2022-08-12T08:15:16.759Z,13.48
2022-08-12T08:18:11.099Z,13.47
2022-08-12T08:20:41.792Z,13.32
2022-08-12T08:23:17.379Z,11.48
2022-08-12T08:25:47.156Z,11.23
2022-08-12T08:28:18.899Z,10.45
2022-08-12T08:30:47.918Z,10.82
2022-08-12T08:33:24.688Z,11.25
2022-08-12T08:36:07.672Z,11.55
2022-08-12T08:38:57.792Z,12.38
2022-08-12T08:42:15.750Z,11.85
2022-08-12T08:44:33.272Z,11.10
2022-08-12T08:47:01.356Z,11.02
2022-08-12T08:49:28.198Z,12.13
2022-08-12T08:51:55.407Z,12.23
2022-08-12T08:54:23.838Z,13.55
2022-08-12T08:56:51.175Z,13.65
2022-08-12T08:59:19.716Z,14.65
2022-08-12T09:01:48.161Z,16.38
2022-08-12T09:05:09.310Z,16.48
2022-08-12T09:07:16.708Z,15.95
2022-08-12T09:12:55.079Z,18.15
2022-08-12T09:15:35.329Z,19.17
2022-08-12T09:18:09.026Z,25.10
2022-08-12T09:20:38.382Z,22.48
2022-08-12T09:26:04.461Z,23.55
2022-08-12T09:28:37.301Z,24.25
2022-08-12T09:32:03.696Z,23.73
2022-08-12T09:34:25.828Z,22.17
2022-08-12T09:36:59.930Z,22.63
2022-08-12T09:40:03.555Z,23.55
2022-08-12T09:42:43.598Z,23.10
2022-08-12T09:45:24.154Z,23.50
2022-08-12T09:48:09.875Z,23.48
2022-08-12T09:50:51.939Z,21.30
2022-08-12T09:53:29.220Z,22.30
2022-08-12T09:56:56.803Z,20.83
2022-08-12T09:58:59.734Z,20.35
2022-08-12T10:01:35.194Z,21.33
2022-08-12T10:04:19.636Z,20.70
2022-08-12T10:06:54.087Z,20.05
2022-08-12T10:09:23.158Z,19.90
2022-08-12T10:12:14.404Z,19.13
2022-08-12T10:14:58.041Z,17.83
2022-08-12T10:17:25.442Z,17.90
2022-08-12T10:19:53.027Z,17.70
2022-08-12T10:22:49.270Z,17.83
2022-08-12T10:26:34.759Z,18.58
2022-08-12T10:28:38.288Z,17.33
2022-08-12T10:33:55.148Z,18.05
2022-08-12T10:36:36.372Z,18.60
2022-08-12T10:40:00.034Z,18.02
2022-08-12T10:42:15.979Z,15.70
2022-08-12T10:44:50.968Z,15.57
2022-08-12T10:47:26.578Z,14.68
2022-08-12T10:50:28.486Z,14.98
2022-08-12T10:52:57.083Z,14.32
2022-08-12T10:55:24.479Z,14.13
2022-08-12T10:58:15.401Z,14.48
2022-08-12T11:00:55.321Z,13.70
2022-08-12T11:04:35.806Z,12.65
2022-08-12T11:07:07.468Z,11.93
2022-08-12T11:09:02.187Z,11.25
2022-08-12T11:12:36.688Z,11.23
2022-08-12T11:14:49.261Z,11.43
2022-08-12T11:17:53.313Z,10.15
2022-08-12T11:20:05.394Z,10.55
2022-08-12T11:22:32.572Z,10.57
2022-08-12T11:24:59.489Z,10.38
2022-08-12T11:27:26.335Z,9.70
2022-08-12T11:30:03.715Z,9.73
2022-08-12T11:32:38.461Z,9.52
2022-08-12T11:35:07.111Z,9.32
2022-08-12T11:37:36.426Z,8.50
2022-08-12T11:40:23.375Z,6.35
2022-08-12T11:42:50.327Z,5.75
2022-08-12T11:45:19.720Z,5.43
2022-08-12T11:47:46.921Z,4.97
2022-08-12T11:50:19.297Z,4.90
2022-08-12T11:52:56.583Z,5.45
2022-08-12T11:55:25.370Z,5.50
2022-08-12T11:58:14.643Z,5.03
2022-08-12T12:03:44.247Z,5.18
2022-08-12T12:06:20.808Z,5.28
2022-08-12T12:08:52.803Z,5.18
2022-08-12T12:11:22.873Z,4.85
2022-08-12T12:14:07.301Z,5.63
2022-08-12T12:16:40.042Z,5.68
2022-08-12T12:19:10.231Z,5.45
2022-08-12T12:21:47.989Z,5.35
2022-08-12T12:24:20.881Z,5.82
2022-08-12T12:27:00.411Z,5.13
2022-08-12T12:30:18.101Z,5.22
2022-08-12T12:32:17.317Z,5.47
2022-08-12T12:38:03.739Z,5.22
2022-08-12T12:40:22.004Z,5.10
2022-08-12T12:43:03.076Z,5.30
2022-08-12T12:45:35.705Z,4.72
2022-08-12T12:48:08.410Z,5.35
2022-08-12T12:50:51.499Z,4.28
2022-08-12T12:54:06.490Z,4.80
2022-08-12T12:56:21.006Z,4.40
2022-08-12T12:59:01.064Z,4.63
2022-08-12T13:01:31.878Z,4.47
2022-08-12T13:04:01.937Z,4.30
2022-08-12T13:06:31.767Z,4.95
2022-08-12T13:09:03.887Z,4.43
2022-08-12T13:11:32.727Z,3.92
2022-08-12T13:14:12.996Z,5.05
2022-08-12T13:16:56.400Z,4.75
2022-08-12T13:19:36.653Z,3.72
2022-08-12T13:22:21.461Z,4.32
2022-08-12T13:24:56.830Z,4.38
2022-08-12T13:27:48.471Z,4.93
2022-08-12T13:30:17.822Z,4.78
2022-08-12T13:32:57.635Z,4.75
2022-08-12T13:36:03.334Z,4.70
2022-08-12T13:38:26.737Z,5.03
2022-08-12T13:41:11.085Z,5.03
2022-08-12T13:43:40.843Z,5.22
2022-08-12T13:46:12.188Z,5.05
2022-08-12T13:48:45.212Z,5.00
2022-08-12T13:51:14.013Z,4.88
2022-08-12T13:53:57.564Z,5.13
2022-08-12T13:56:34.513Z,4.75
2022-08-12T13:59:08.018Z,4.75
2022-08-12T14:01:40.487Z,4.40
2022-08-12T14:04:11.584Z,4.72
2022-08-12T14:06:44.793Z,4.65
2022-08-12T14:09:15.679Z,4.50
2022-08-12T14:11:48.473Z,4.68
2022-08-12T14:14:31.333Z,5.55
2022-08-12T14:17:05.545Z,5.32
2022-08-12T14:19:35.690Z,5.68
2022-08-12T14:22:06.829Z,4.90
2022-08-12T14:24:40.739Z,5.40
2022-08-12T14:27:11.049Z,7.80
2022-08-12T14:30:04.483Z,5.40
2022-08-12T14:32:35.663Z,5.43
2022-08-12T14:35:09.251Z,5.47
2022-08-12T14:37:56.044Z,5.70
2022-08-12T14:40:27.500Z,5.07
2022-08-12T14:42:57.133Z,5.53
2022-08-12T14:45:44.217Z,5.15
2022-08-12T14:48:15.284Z,5.57
2022-08-12T14:51:03.216Z,5.55
2022-08-12T14:59:55.689Z,5.65
2022-08-12T15:02:21.182Z,5.75
2022-08-12T15:04:56.129Z,6.43
2022-08-12T15:07:34.469Z,6.07
2022-08-12T15:10:10.918Z,5.50
2022-08-12T15:12:40.708Z,6.43
2022-08-12T15:15:09.065Z,5.90
2022-08-12T15:17:38.792Z,5.68
2022-08-12T15:20:31.634Z,5.43
2022-08-12T15:22:58.165Z,6.03
2022-08-12T15:25:26.227Z,6.43
2022-08-12T15:28:05.485Z,6.80
2022-08-12T15:30:40.584Z,7.07
2022-08-12T15:33:12.894Z,7.22
2022-08-12T15:35:51.981Z,6.75
2022-08-12T15:38:21.235Z,6.95
2022-08-12T15:40:51.356Z,6.45
2022-08-12T15:43:51.993Z,6.15
2022-08-12T15:46:07.637Z,6.65
2022-08-12T15:48:46.330Z,6.82
2022-08-12T15:51:58.633Z,6.00
2022-08-12T15:54:34.530Z,9.80
2022-08-12T15:57:07.812Z,9.60
2022-08-12T15:59:59.909Z,15.63
2022-08-12T16:02:29.755Z,10.98
2022-08-12T16:04:57.297Z,12.57
2022-08-12T16:07:26.017Z,10.30
2022-08-12T16:10:06.674Z,12.50
2022-08-12T16:12:43.604Z,11.45
2022-08-12T16:15:29.388Z,9.57
2022-08-12T16:18:18.093Z,12.38
2022-08-12T16:20:47.360Z,7.78
2022-08-12T16:23:36.158Z,6.40
2022-08-12T16:26:14.437Z,6.35
2022-08-12T16:28:47.606Z,7.07
2022-08-12T16:31:23.099Z,11.98
2022-08-12T16:33:58.794Z,10.40
2022-08-12T16:36:29.622Z,8.65
2022-08-12T16:39:01.642Z,10.10
2022-08-12T16:41:39.589Z,10.80
2022-08-12T16:44:08.888Z,11.15
2022-08-12T16:46:38.977Z,8.75
2022-08-12T16:49:13.473Z,9.77
2022-08-12T16:51:45.947Z,8.40
2022-08-12T16:54:16.575Z,7.57
2022-08-12T16:56:54.960Z,7.53
2022-08-12T16:59:26.439Z,7.47
2022-08-12T17:02:30.096Z,7.82
2022-08-12T17:05:03.114Z,7.88
2022-08-12T17:07:37.175Z,8.15
2022-08-12T17:10:09.499Z,7.70
2022-08-12T17:12:39.356Z,8.07
2022-08-12T17:15:50.772Z,9.23
2022-08-12T17:18:39.308Z,8.43
2022-08-12T17:20:47.311Z,9.00
2022-08-12T17:23:19.637Z,9.98
2022-08-12T17:25:52.946Z,10.70
2022-08-12T17:28:22.726Z,10.55
2022-08-12T17:30:59.800Z,10.00
2022-08-12T17:33:27.837Z,10.18
2022-08-12T17:36:01.411Z,10.32
2022-08-12T17:38:29.558Z,10.00
2022-08-12T17:40:57.746Z,13.70
2022-08-12T17:43:57.348Z,12.30
2022-08-12T17:46:13.363Z,12.15
2022-08-12T17:48:55.362Z,14.27
2022-08-12T17:51:24.657Z,15.85
2022-08-12T17:54:06.180Z,12.55
2022-08-12T17:56:39.361Z,13.02
2022-08-12T17:59:07.382Z,12.85
2022-08-12T18:01:35.935Z,13.00
2022-08-12T18:04:20.951Z,12.18
2022-08-12T18:06:51.402Z,10.77
2022-08-12T18:09:21.357Z,10.88
2022-08-12T18:12:08.195Z,15.63
2022-08-12T18:14:40.985Z,18.95
2022-08-12T18:17:10.234Z,19.65
2022-08-12T18:20:06.205Z,16.33
2022-08-12T18:22:30.825Z,19.92
2022-08-12T18:25:06.346Z,21.23
2022-08-12T18:27:44.982Z,21.23
2022-08-12T18:30:20.390Z,20.02
2022-08-12T18:33:03.462Z,20.00
2022-08-12T18:35:46.869Z,21.80
2022-08-12T18:38:24.688Z,22.00
2022-08-12T18:41:21.917Z,19.30
2022-08-12T18:44:02.488Z,18.10
2022-08-12T18:46:54.374Z,16.55
2022-08-12T18:49:39.198Z,16.98
2022-08-12T18:52:11.730Z,18.75
2022-08-12T18:54:49.505Z,19.90
2022-08-12T18:58:06.199Z,22.45
2022-08-12T19:00:18.916Z,27.23
2022-08-12T19:02:51.197Z,28.05
2022-08-12T19:08:00.544Z,24.42
2022-08-12T19:10:32.059Z,19.80
2022-08-12T19:13:23.434Z,21.83
2022-08-12T19:15:54.454Z,21.90
2022-08-12T19:18:24.472Z,22.70
2022-08-12T19:20:56.852Z,20.77
2022-08-12T19:23:33.754Z,21.60
2022-08-12T19:26:03.617Z,20.52
2022-08-12T19:28:35.566Z,21.80
2022-08-12T19:31:44.925Z,19.10
2022-08-12T19:35:24.150Z,21.90
2022-08-12T19:37:38.528Z,20.70
2022-08-12T19:40:31.600Z,18.05
2022-08-12T19:43:13.280Z,21.23
2022-08-12T19:45:51.586Z,20.88
2022-08-12T19:48:21.545Z,22.23
2022-08-12T19:50:52.206Z,27.25
2022-08-12T19:53:22.873Z,22.67
2022-08-12T19:55:54.654Z,18.52
2022-08-12T19:58:23.831Z,17.58
2022-08-12T20:00:54.328Z,18.77
2022-08-12T20:03:37.937Z,17.45
2022-08-12T20:06:13.705Z,15.82
2022-08-12T20:08:49.154Z,12.93
2022-08-12T20:12:14.177Z,15.27
2022-08-12T20:14:18.081Z,14.10
2022-08-12T20:17:01.782Z,15.43
2022-08-12T20:20:16.379Z,14.95
2022-08-12T20:22:30.000Z,15.20
2022-08-12T20:25:01.661Z,17.45
2022-08-12T20:28:03.045Z,17.85
2022-08-12T20:30:20.666Z,17.45
2022-08-12T20:33:05.404Z,19.35
2022-08-12T20:36:06.900Z,18.88
2022-08-12T20:38:26.760Z,19.30
2022-08-12T20:40:55.691Z,16.13
2022-08-12T20:43:28.252Z,17.10
2022-08-12T20:45:58.920Z,16.05
2022-08-12T20:48:28.604Z,20.00
2022-08-12T20:51:04.335Z,13.55
2022-08-12T20:53:53.816Z,14.20
2022-08-12T20:56:30.224Z,14.35
2022-08-12T20:59:01.099Z,11.13
2022-08-12T21:01:46.700Z,19.23
2022-08-12T21:04:36.157Z,16.23
2022-08-12T21:07:09.051Z,16.65
2022-08-12T21:09:44.620Z,20.88
2022-08-12T21:12:31.014Z,19.48
2022-08-12T21:15:22.858Z,20.67
2022-08-12T21:18:11.625Z,22.83
2022-08-12T21:20:53.217Z,20.80
2022-08-12T21:25:51.732Z,15.00
2022-08-12T21:28:20.841Z,12.20
2022-08-12T21:33:58.534Z,14.00
2022-08-12T21:36:34.479Z,14.27
2022-08-12T21:39:19.120Z,14.40
2022-08-12T21:41:54.178Z,13.15
2022-08-12T21:45:46.019Z,13.93
2022-08-12T21:47:20.776Z,14.35
2022-08-12T21:50:04.263Z,13.82
2022-08-12T21:52:41.030Z,14.23
2022-08-12T21:55:18.537Z,14.23
2022-08-12T21:57:54.449Z,13.23
2022-08-12T22:00:35.266Z,12.43
2022-08-12T22:04:11.145Z,14.57
2022-08-12T22:06:30.519Z,13.80
2022-08-12T22:09:16.332Z,14.52
2022-08-12T22:11:56.284Z,15.88
2022-08-12T22:14:28.052Z,15.73
2022-08-12T22:16:56.563Z,15.77
2022-08-12T22:19:24.471Z,15.65
2022-08-12T22:21:58.864Z,16.05
2022-08-12T22:24:31.173Z,19.58
2022-08-12T22:27:08.269Z,20.23
2022-08-12T22:30:05.586Z,20.30
2022-08-12T22:32:33.963Z,20.20
2022-08-12T22:35:22.326Z,21.02
2022-08-12T22:37:53.638Z,22.80
2022-08-12T22:40:23.810Z,19.92
2022-08-12T22:43:15.263Z,20.48
2022-08-12T22:46:01.578Z,20.90
2022-08-12T22:48:28.589Z,21.67
2022-08-12T22:50:59.405Z,20.25
2022-08-12T22:53:36.524Z,20.55
2022-08-12T22:56:08.048Z,20.73
2022-08-12T22:58:40.390Z,20.10
2022-08-12T23:01:08.082Z,20.85
2022-08-12T23:03:47.158Z,20.83
2022-08-12T23:06:16.908Z,21.52
2022-08-12T23:08:43.787Z,20.92
2022-08-12T23:11:10.676Z,21.98
2022-08-12T23:13:54.666Z,20.13
2022-08-12T23:16:31.580Z,21.05
2022-08-12T23:19:09.681Z,19.33
2022-08-12T23:22:04.942Z,18.40
2022-08-12T23:24:56.260Z,19.02
2022-08-12T23:28:05.533Z,19.45
2022-08-12T23:30:52.655Z,20.80
2022-08-12T23:33:21.600Z,19.35
2022-08-12T23:36:06.856Z,20.60
2022-08-12T23:38:35.424Z,21.75
2022-08-12T23:41:05.995Z,21.88
2022-08-12T23:43:39.997Z,21.23
2022-08-12T23:46:19.257Z,19.35
2022-08-12T23:48:51.620Z,21.55
2022-08-12T23:51:24.649Z,21.63
2022-08-12T23:54:00.348Z,20.38
2022-08-12T23:56:29.316Z,21.58
2022-08-12T23:58:57.436Z,21.90
